sensor_id;sensor_type;location;lat;lon;timestamp;temperature;humidity
10386;DHT22;34307;51.332;12.334;2023-06-26T00:01:54;19.70;99.90
10386;DHT22;34307;51.332;12.334;2023-06-26T00:04:23;19.60;99.90
10386;DHT22;34307;51.332;12.334;2023-06-26T00:06:51;19.60;99.90
10386;DHT22;34307;51.332;12.334;2023-06-26T00:09:23;19.60;99.90
10386;DHT22;34307;51.332;12.334;2023-06-26T00:12:01;19.50;99.90
10386;DHT22;34307;51.332;12.334;2023-06-26T00:14:29;19.50;99.90
10386;DHT22;34307;51.332;12.334;2023-06-26T00:16:59;19.50;99.90
10386;DHT22;34307;51.332;12.334;2023-06-26T00:19:27;19.40;99.90
10386;DHT22;34307;51.332;12.334;2023-06-26T00:21:55;19.40;99.90
10386;DHT22;34307;51.332;12.334;2023-06-26T00:24:23;19.30;99.90
10386;DHT22;34307;51.332;12.334;2023-06-26T00:26:51;19.30;99.90
10386;DHT22;34307;51.332;12.334;2023-06-26T00:29:21;19.30;99.90
10386;DHT22;34307;51.332;12.334;2023-06-26T00:31:49;19.30;99.90
10386;DHT22;34307;51.332;12.334;2023-06-26T00:34:17;19.30;99.90
10386;DHT22;34307;51.332;12.334;2023-06-26T00:36:46;19.20;99.90
10386;DHT22;34307;51.332;12.334;2023-06-26T00:39:15;19.20;99.90
10386;DHT22;34307;51.332;12.334;2023-06-26T00:41:45;19.10;99.90
10386;DHT22;34307;51.332;12.334;2023-06-26T00:44:15;19.10;99.90
10386;DHT22;34307;51.332;12.334;2023-06-26T00:46:45;19.10;99.90
10386;DHT22;34307;51.332;12.334;2023-06-26T00:49:13;19.10;99.90
10386;DHT22;34307;51.332;12.334;2023-06-26T00:51:42;19.10;99.90
10386;DHT22;34307;51.332;12.334;2023-06-26T00:54:11;19.10;99.90
10386;DHT22;34307;51.332;12.334;2023-06-26T00:56:39;19.00;99.90
10386;DHT22;34307;51.332;12.334;2023-06-26T00:59:07;19.00;99.90
10386;DHT22;34307;51.332;12.334;2023-06-26T01:01:35;18.90;99.90
10386;DHT22;34307;51.332;12.334;2023-06-26T01:04:05;18.90;99.90
10386;DHT22;34307;51.332;12.334;2023-06-26T01:06:33;18.90;99.90
10386;DHT22;34307;51.332;12.334;2023-06-26T01:09:03;18.90;99.90
10386;DHT22;34307;51.332;12.334;2023-06-26T01:11:31;18.90;99.90
10386;DHT22;34307;51.332;12.334;2023-06-26T01:14:00;18.90;99.90
10386;DHT22;34307;51.332;12.334;2023-06-26T01:16:30;18.90;99.90
10386;DHT22;34307;51.332;12.334;2023-06-26T01:18:59;18.90;99.90
10386;DHT22;34307;51.332;12.334;2023-06-26T01:21:28;18.90;99.90
10386;DHT22;34307;51.332;12.334;2023-06-26T01:24:05;18.80;99.90
10386;DHT22;34307;51.332;12.334;2023-06-26T01:26:40;18.70;99.90
10386;DHT22;34307;51.332;12.334;2023-06-26T01:29:10;18.70;99.90
10386;DHT22;34307;51.332;12.334;2023-06-26T01:31:41;18.70;99.90
10386;DHT22;34307;51.332;12.334;2023-06-26T01:34:10;18.70;99.90
10386;DHT22;34307;51.332;12.334;2023-06-26T01:36:38;18.70;99.90
10386;DHT22;34307;51.332;12.334;2023-06-26T01:39:07;18.70;99.90
10386;DHT22;34307;51.332;12.334;2023-06-26T01:41:36;18.70;99.90
10386;DHT22;34307;51.332;12.334;2023-06-26T01:44:14;18.60;99.90
10386;DHT22;34307;51.332;12.334;2023-06-26T01:46:53;18.60;99.90
10386;DHT22;34307;51.332;12.334;2023-06-26T01:49:31;18.60;99.90
10386;DHT22;34307;51.332;12.334;2023-06-26T01:52:07;18.60;99.90
10386;DHT22;34307;51.332;12.334;2023-06-26T01:54:42;18.60;99.90
10386;DHT22;34307;51.332;12.334;2023-06-26T01:57:16;18.50;99.90
10386;DHT22;34307;51.332;12.334;2023-06-26T01:59:46;18.50;99.90
10386;DHT22;34307;51.332;12.334;2023-06-26T02:02:15;18.50;99.90
10386;DHT22;34307;51.332;12.334;2023-06-26T02:04:43;18.40;99.90
10386;DHT22;34307;51.332;12.334;2023-06-26T02:07:11;18.40;99.90
10386;DHT22;34307;51.332;12.334;2023-06-26T02:09:39;18.40;99.90
10386;DHT22;34307;51.332;12.334;2023-06-26T02:12:07;18.40;99.90
10386;DHT22;34307;51.332;12.334;2023-06-26T02:14:37;18.30;99.90
10386;DHT22;34307;51.332;12.334;2023-06-26T02:17:05;18.30;99.90
10386;DHT22;34307;51.332;12.334;2023-06-26T02:19:35;18.30;99.90
10386;DHT22;34307;51.332;12.334;2023-06-26T02:22:04;18.30;99.90
10386;DHT22;34307;51.332;12.334;2023-06-26T02:24:31;18.30;99.90
10386;DHT22;34307;51.332;12.334;2023-06-26T02:27:00;18.30;99.90
10386;DHT22;34307;51.332;12.334;2023-06-26T02:29:28;18.30;99.90
10386;DHT22;34307;51.332;12.334;2023-06-26T02:31:58;18.30;99.90
10386;DHT22;34307;51.332;12.334;2023-06-26T02:34:26;18.30;99.90
10386;DHT22;34307;51.332;12.334;2023-06-26T02:36:54;18.20;99.90
10386;DHT22;34307;51.332;12.334;2023-06-26T02:39:22;18.20;99.90
10386;DHT22;34307;51.332;12.334;2023-06-26T02:41:50;18.20;99.90
10386;DHT22;34307;51.332;12.334;2023-06-26T02:44:18;18.20;99.90
10386;DHT22;34307;51.332;12.334;2023-06-26T02:46:46;18.20;99.90
10386;DHT22;34307;51.332;12.334;2023-06-26T02:49:16;18.20;99.90
10386;DHT22;34307;51.332;12.334;2023-06-26T02:51:49;18.10;99.90
10386;DHT22;34307;51.332;12.334;2023-06-26T02:54:17;18.10;99.90
10386;DHT22;34307;51.332;12.334;2023-06-26T02:56:45;18.10;99.90
10386;DHT22;34307;51.332;12.334;2023-06-26T02:59:15;18.10;99.90
10386;DHT22;34307;51.332;12.334;2023-06-26T03:01:43;18.10;99.90
10386;DHT22;34307;51.332;12.334;2023-06-26T03:04:11;18.00;99.90
10386;DHT22;34307;51.332;12.334;2023-06-26T03:06:41;18.00;99.90
10386;DHT22;34307;51.332;12.334;2023-06-26T03:09:09;18.00;99.90
10386;DHT22;34307;51.332;12.334;2023-06-26T03:11:37;18.10;99.90
10386;DHT22;34307;51.332;12.334;2023-06-26T03:14:05;18.00;99.90
10386;DHT22;34307;51.332;12.334;2023-06-26T03:16:34;18.00;99.90
10386;DHT22;34307;51.332;12.334;2023-06-26T03:19:03;18.00;99.90
10386;DHT22;34307;51.332;12.334;2023-06-26T03:21:31;18.00;99.90
10386;DHT22;34307;51.332;12.334;2023-06-26T03:24:00;18.00;99.90
10386;DHT22;34307;51.332;12.334;2023-06-26T03:26:29;18.00;99.90
10386;DHT22;34307;51.332;12.334;2023-06-26T03:28:56;18.00;99.90
10386;DHT22;34307;51.332;12.334;2023-06-26T03:31:24;18.10;99.90
10386;DHT22;34307;51.332;12.334;2023-06-26T03:33:52;18.10;99.90
10386;DHT22;34307;51.332;12.334;2023-06-26T03:36:22;18.10;99.90
10386;DHT22;34307;51.332;12.334;2023-06-26T03:38:50;18.10;99.90
10386;DHT22;34307;51.332;12.334;2023-06-26T03:41:25;18.20;99.90
10386;DHT22;34307;51.332;12.334;2023-06-26T03:43:52;18.20;99.90
10386;DHT22;34307;51.332;12.334;2023-06-26T03:46:22;18.30;99.90
10386;DHT22;34307;51.332;12.334;2023-06-26T03:48:50;18.30;99.90
10386;DHT22;34307;51.332;12.334;2023-06-26T03:51:18;18.30;99.90
10386;DHT22;34307;51.332;12.334;2023-06-26T03:53:47;18.40;99.90
10386;DHT22;34307;51.332;12.334;2023-06-26T03:56:18;18.40;99.90
10386;DHT22;34307;51.332;12.334;2023-06-26T03:58:48;18.40;99.90
10386;DHT22;34307;51.332;12.334;2023-06-26T04:01:18;18.40;99.90
10386;DHT22;34307;51.332;12.334;2023-06-26T04:03:46;18.40;99.90
10386;DHT22;34307;51.332;12.334;2023-06-26T04:06:14;18.50;99.90
10386;DHT22;34307;51.332;12.334;2023-06-26T04:08:42;18.50;99.90
10386;DHT22;34307;51.332;12.334;2023-06-26T04:11:10;18.60;99.90
10386;DHT22;34307;51.332;12.334;2023-06-26T04:13:40;18.60;99.90
10386;DHT22;34307;51.332;12.334;2023-06-26T04:16:10;18.60;99.90
10386;DHT22;34307;51.332;12.334;2023-06-26T04:18:38;18.70;99.90
10386;DHT22;34307;51.332;12.334;2023-06-26T04:21:08;18.70;99.90
10386;DHT22;34307;51.332;12.334;2023-06-26T04:23:36;18.80;99.90
10386;DHT22;34307;51.332;12.334;2023-06-26T04:26:05;18.80;99.90
10386;DHT22;34307;51.332;12.334;2023-06-26T04:28:34;18.90;99.90
10386;DHT22;34307;51.332;12.334;2023-06-26T04:31:02;19.00;99.90
10386;DHT22;34307;51.332;12.334;2023-06-26T04:33:34;19.00;99.90
10386;DHT22;34307;51.332;12.334;2023-06-26T04:36:06;19.00;99.90
10386;DHT22;34307;51.332;12.334;2023-06-26T04:38:34;19.10;99.90
10386;DHT22;34307;51.332;12.334;2023-06-26T04:41:03;19.20;99.90
10386;DHT22;34307;51.332;12.334;2023-06-26T04:43:32;19.30;99.90
10386;DHT22;34307;51.332;12.334;2023-06-26T04:46:02;19.30;99.90
10386;DHT22;34307;51.332;12.334;2023-06-26T04:48:30;19.40;99.90
10386;DHT22;34307;51.332;12.334;2023-06-26T04:51:01;19.40;99.90
10386;DHT22;34307;51.332;12.334;2023-06-26T04:53:29;19.50;99.90
10386;DHT22;34307;51.332;12.334;2023-06-26T04:55:57;19.60;99.90
10386;DHT22;34307;51.332;12.334;2023-06-26T04:58:25;19.60;99.90
10386;DHT22;34307;51.332;12.334;2023-06-26T05:00:53;19.70;99.90
10386;DHT22;34307;51.332;12.334;2023-06-26T05:03:22;19.70;99.90
10386;DHT22;34307;51.332;12.334;2023-06-26T05:05:50;19.80;99.90
10386;DHT22;34307;51.332;12.334;2023-06-26T05:08:23;19.90;99.90
10386;DHT22;34307;51.332;12.334;2023-06-26T05:10:53;20.00;99.90
10386;DHT22;34307;51.332;12.334;2023-06-26T05:13:26;20.10;99.90
10386;DHT22;34307;51.332;12.334;2023-06-26T05:15:54;20.20;99.90
10386;DHT22;34307;51.332;12.334;2023-06-26T05:18:22;20.20;99.90
10386;DHT22;34307;51.332;12.334;2023-06-26T05:20:51;20.30;99.90
10386;DHT22;34307;51.332;12.334;2023-06-26T05:23:19;20.40;99.90
10386;DHT22;34307;51.332;12.334;2023-06-26T05:25:49;20.40;99.90
10386;DHT22;34307;51.332;12.334;2023-06-26T05:28:18;20.50;99.90
10386;DHT22;34307;51.332;12.334;2023-06-26T05:30:48;20.60;99.90
10386;DHT22;34307;51.332;12.334;2023-06-26T05:33:18;20.70;99.90
10386;DHT22;34307;51.332;12.334;2023-06-26T05:35:46;20.70;99.90
10386;DHT22;34307;51.332;12.334;2023-06-26T05:38:16;20.70;99.90
10386;DHT22;34307;51.332;12.334;2023-06-26T05:40:44;20.80;99.90
10386;DHT22;34307;51.332;12.334;2023-06-26T05:43:15;20.80;99.90
10386;DHT22;34307;51.332;12.334;2023-06-26T05:45:53;20.90;99.90
10386;DHT22;34307;51.332;12.334;2023-06-26T05:48:30;21.00;99.90
10386;DHT22;34307;51.332;12.334;2023-06-26T05:54:17;21.20;99.90
10386;DHT22;34307;51.332;12.334;2023-06-26T05:56:47;21.30;99.90
10386;DHT22;34307;51.332;12.334;2023-06-26T05:59:17;21.40;99.90
10386;DHT22;34307;51.332;12.334;2023-06-26T06:01:46;21.40;99.90
10386;DHT22;34307;51.332;12.334;2023-06-26T06:04:14;21.50;99.90
10386;DHT22;34307;51.332;12.334;2023-06-26T06:06:42;21.50;99.90
10386;DHT22;34307;51.332;12.334;2023-06-26T06:09:13;21.60;98.80
10386;DHT22;34307;51.332;12.334;2023-06-26T06:11:41;21.60;98.90
10386;DHT22;34307;51.332;12.334;2023-06-26T06:14:09;21.70;98.50
10386;DHT22;34307;51.332;12.334;2023-06-26T06:16:38;21.70;97.70
10386;DHT22;34307;51.332;12.334;2023-06-26T06:19:06;21.60;98.00
10386;DHT22;34307;51.332;12.334;2023-06-26T06:21:38;21.70;97.30
10386;DHT22;34307;51.332;12.334;2023-06-26T06:24:06;21.80;96.30
10386;DHT22;34307;51.332;12.334;2023-06-26T06:26:34;21.80;96.90
10386;DHT22;34307;51.332;12.334;2023-06-26T06:29:04;22.00;96.90
10386;DHT22;34307;51.332;12.334;2023-06-26T06:31:32;22.10;95.00
10386;DHT22;34307;51.332;12.334;2023-06-26T06:34:02;22.20;94.20
10386;DHT22;34307;51.332;12.334;2023-06-26T06:36:30;22.30;91.60
10386;DHT22;34307;51.332;12.334;2023-06-26T06:38:59;22.40;91.10
10386;DHT22;34307;51.332;12.334;2023-06-26T06:41:27;22.40;90.70
10386;DHT22;34307;51.332;12.334;2023-06-26T06:43:55;22.50;90.10
10386;DHT22;34307;51.332;12.334;2023-06-26T06:46:25;22.50;90.80
10386;DHT22;34307;51.332;12.334;2023-06-26T06:48:53;22.50;90.40
10386;DHT22;34307;51.332;12.334;2023-06-26T06:51:23;22.70;90.40
10386;DHT22;34307;51.332;12.334;2023-06-26T06:53:52;22.70;90.30
10386;DHT22;34307;51.332;12.334;2023-06-26T06:56:20;22.90;88.20
10386;DHT22;34307;51.332;12.334;2023-06-26T06:58:48;22.90;87.40
10386;DHT22;34307;51.332;12.334;2023-06-26T07:01:16;22.90;87.50
10386;DHT22;34307;51.332;12.334;2023-06-26T07:03:44;23.00;88.00
10386;DHT22;34307;51.332;12.334;2023-06-26T07:06:12;23.10;87.80
10386;DHT22;34307;51.332;12.334;2023-06-26T07:08:42;23.10;87.90
10386;DHT22;34307;51.332;12.334;2023-06-26T07:11:10;23.10;87.60
10386;DHT22;34307;51.332;12.334;2023-06-26T07:13:37;23.20;87.80
10386;DHT22;34307;51.332;12.334;2023-06-26T07:16:07;23.40;88.20
10386;DHT22;34307;51.332;12.334;2023-06-26T07:18:38;23.40;79.50
10386;DHT22;34307;51.332;12.334;2023-06-26T07:21:06;23.50;80.80
10386;DHT22;34307;51.332;12.334;2023-06-26T07:23:34;23.50;80.70
10386;DHT22;34307;51.332;12.334;2023-06-26T07:26:03;23.60;81.00
10386;DHT22;34307;51.332;12.334;2023-06-26T07:28:31;23.70;76.60
10386;DHT22;34307;51.332;12.334;2023-06-26T07:30:59;23.80;77.80
10386;DHT22;34307;51.332;12.334;2023-06-26T07:33:27;24.00;74.60
10386;DHT22;34307;51.332;12.334;2023-06-26T07:35:56;24.10;73.50
10386;DHT22;34307;51.332;12.334;2023-06-26T07:38:24;24.10;73.50
10386;DHT22;34307;51.332;12.334;2023-06-26T07:40:53;24.20;73.60
10386;DHT22;34307;51.332;12.334;2023-06-26T07:43:23;24.30;70.50
10386;DHT22;34307;51.332;12.334;2023-06-26T07:45:52;24.40;70.50
10386;DHT22;34307;51.332;12.334;2023-06-26T07:48:25;24.40;70.30
10386;DHT22;34307;51.332;12.334;2023-06-26T07:50:53;24.50;70.50
10386;DHT22;34307;51.332;12.334;2023-06-26T07:53:22;24.50;69.50
10386;DHT22;34307;51.332;12.334;2023-06-26T07:55:51;24.60;68.50
10386;DHT22;34307;51.332;12.334;2023-06-26T07:58:19;24.60;67.80
10386;DHT22;34307;51.332;12.334;2023-06-26T08:04:05;25.00;66.40
10386;DHT22;34307;51.332;12.334;2023-06-26T08:06:34;25.50;62.00
10386;DHT22;34307;51.332;12.334;2023-06-26T08:09:07;26.10;60.40
10386;DHT22;34307;51.332;12.334;2023-06-26T08:11:35;26.70;57.40
10386;DHT22;34307;51.332;12.334;2023-06-26T08:14:03;27.10;53.90
10386;DHT22;34307;51.332;12.334;2023-06-26T08:16:31;27.30;51.30
10386;DHT22;34307;51.332;12.334;2023-06-26T08:19:00;27.30;51.50
10386;DHT22;34307;51.332;12.334;2023-06-26T08:21:30;27.50;49.60
10386;DHT22;34307;51.332;12.334;2023-06-26T08:23:58;27.80;48.70
10386;DHT22;34307;51.332;12.334;2023-06-26T08:26:26;27.80;46.30
10386;DHT22;34307;51.332;12.334;2023-06-26T08:28:53;27.90;46.20
10386;DHT22;34307;51.332;12.334;2023-06-26T08:31:21;27.80;43.80
10386;DHT22;34307;51.332;12.334;2023-06-26T08:33:49;27.70;44.10
10386;DHT22;34307;51.332;12.334;2023-06-26T08:36:18;27.90;43.70
10386;DHT22;34307;51.332;12.334;2023-06-26T08:38:47;28.00;43.90
10386;DHT22;34307;51.332;12.334;2023-06-26T08:41:15;28.30;42.30
10386;DHT22;34307;51.332;12.334;2023-06-26T08:43:43;28.50;39.50
10386;DHT22;34307;51.332;12.334;2023-06-26T08:46:11;28.30;38.40
10386;DHT22;34307;51.332;12.334;2023-06-26T08:48:39;28.30;38.60
10386;DHT22;34307;51.332;12.334;2023-06-26T08:51:12;28.50;37.30
10386;DHT22;34307;51.332;12.334;2023-06-26T08:53:48;29.00;36.20
10386;DHT22;34307;51.332;12.334;2023-06-26T08:56:19;29.10;34.50
10386;DHT22;34307;51.332;12.334;2023-06-26T08:58:49;29.00;32.40
10386;DHT22;34307;51.332;12.334;2023-06-26T09:01:18;28.80;31.60
10386;DHT22;34307;51.332;12.334;2023-06-26T09:03:47;29.00;31.10
10386;DHT22;34307;51.332;12.334;2023-06-26T09:06:16;29.10;31.30
10386;DHT22;34307;51.332;12.334;2023-06-26T09:08:45;29.10;30.50
10386;DHT22;34307;51.332;12.334;2023-06-26T09:11:13;29.10;30.50
10386;DHT22;34307;51.332;12.334;2023-06-26T09:13:45;29.20;29.30
10386;DHT22;34307;51.332;12.334;2023-06-26T09:16:14;28.90;29.60
10386;DHT22;34307;51.332;12.334;2023-06-26T09:18:42;29.00;29.50
10386;DHT22;34307;51.332;12.334;2023-06-26T09:21:12;29.20;28.90
10386;DHT22;34307;51.332;12.334;2023-06-26T09:23:42;29.10;27.90
10386;DHT22;34307;51.332;12.334;2023-06-26T09:26:11;29.10;27.60
10386;DHT22;34307;51.332;12.334;2023-06-26T09:28:42;29.20;27.00
10386;DHT22;34307;51.332;12.334;2023-06-26T09:31:12;28.90;26.70
10386;DHT22;34307;51.332;12.334;2023-06-26T09:33:55;29.30;25.70
10386;DHT22;34307;51.332;12.334;2023-06-26T09:36:27;29.30;25.50
10386;DHT22;34307;51.332;12.334;2023-06-26T09:38:55;29.60;24.10
10386;DHT22;34307;51.332;12.334;2023-06-26T09:41:23;29.70;22.60
10386;DHT22;34307;51.332;12.334;2023-06-26T09:43:51;29.70;22.00
10386;DHT22;34307;51.332;12.334;2023-06-26T09:46:25;29.80;19.80
10386;DHT22;34307;51.332;12.334;2023-06-26T09:48:59;29.60;20.90
10386;DHT22;34307;51.332;12.334;2023-06-26T09:51:30;29.70;20.20
10386;DHT22;34307;51.332;12.334;2023-06-26T09:54:00;30.00;20.40
10386;DHT22;34307;51.332;12.334;2023-06-26T09:56:29;30.00;18.90
10386;DHT22;34307;51.332;12.334;2023-06-26T09:58:59;29.90;17.80
10386;DHT22;34307;51.332;12.334;2023-06-26T10:01:32;30.00;15.80
10386;DHT22;34307;51.332;12.334;2023-06-26T10:04:01;30.10;14.40
10386;DHT22;34307;51.332;12.334;2023-06-26T10:06:35;30.10;14.50
10386;DHT22;34307;51.332;12.334;2023-06-26T10:09:03;30.20;13.30
10386;DHT22;34307;51.332;12.334;2023-06-26T10:11:35;30.60;14.00
10386;DHT22;34307;51.332;12.334;2023-06-26T10:14:04;30.70;11.30
10386;DHT22;34307;51.332;12.334;2023-06-26T10:16:46;30.80;10.20
10386;DHT22;34307;51.332;12.334;2023-06-26T10:19:18;30.80;5.70
10386;DHT22;34307;51.332;12.334;2023-06-26T10:21:51;30.40;3.90
10386;DHT22;34307;51.332;12.334;2023-06-26T10:24:20;30.20;4.40
10386;DHT22;34307;51.332;12.334;2023-06-26T10:26:51;30.30;5.70
10386;DHT22;34307;51.332;12.334;2023-06-26T10:29:21;30.40;4.20
10386;DHT22;34307;51.332;12.334;2023-06-26T10:31:54;30.20;2.20
10386;DHT22;34307;51.332;12.334;2023-06-26T10:34:23;30.30;1.00
10386;DHT22;34307;51.332;12.334;2023-06-26T10:36:58;30.30;1.00
10386;DHT22;34307;51.332;12.334;2023-06-26T10:39:27;30.10;1.00
10386;DHT22;34307;51.332;12.334;2023-06-26T10:41:55;30.00;1.00
10386;DHT22;34307;51.332;12.334;2023-06-26T10:44:40;30.10;1.20
10386;DHT22;34307;51.332;12.334;2023-06-26T10:47:10;30.80;1.00
10386;DHT22;34307;51.332;12.334;2023-06-26T10:49:46;31.00;1.00
10386;DHT22;34307;51.332;12.334;2023-06-26T10:52:27;31.40;1.00
10386;DHT22;34307;51.332;12.334;2023-06-26T10:54:55;31.50;1.00
10386;DHT22;34307;51.332;12.334;2023-06-26T10:57:25;31.80;1.00
10386;DHT22;34307;51.332;12.334;2023-06-26T11:00:08;31.90;1.00
10386;DHT22;34307;51.332;12.334;2023-06-26T11:02:48;31.40;1.00
10386;DHT22;34307;51.332;12.334;2023-06-26T11:05:24;31.10;1.00
10386;DHT22;34307;51.332;12.334;2023-06-26T11:08:06;31.20;1.00
10386;DHT22;34307;51.332;12.334;2023-06-26T11:10:53;31.70;1.00
10386;DHT22;34307;51.332;12.334;2023-06-26T11:13:22;31.70;1.00
10386;DHT22;34307;51.332;12.334;2023-06-26T11:15:51;31.60;1.00
10386;DHT22;34307;51.332;12.334;2023-06-26T11:18:20;32.20;1.00
10386;DHT22;34307;51.332;12.334;2023-06-26T11:20:50;32.10;1.00
10386;DHT22;34307;51.332;12.334;2023-06-26T11:23:22;32.30;1.00
10386;DHT22;34307;51.332;12.334;2023-06-26T11:25:50;32.30;1.00
10386;DHT22;34307;51.332;12.334;2023-06-26T11:28:21;31.20;1.00
10386;DHT22;34307;51.332;12.334;2023-06-26T11:30:49;31.50;1.00
10386;DHT22;34307;51.332;12.334;2023-06-26T11:33:17;31.60;1.00
10386;DHT22;34307;51.332;12.334;2023-06-26T11:35:47;31.20;1.00
10386;DHT22;34307;51.332;12.334;2023-06-26T11:38:14;31.50;1.00
10386;DHT22;34307;51.332;12.334;2023-06-26T11:40:44;32.20;1.00
10386;DHT22;34307;51.332;12.334;2023-06-26T11:43:12;33.30;1.00
10386;DHT22;34307;51.332;12.334;2023-06-26T11:45:41;33.40;1.00
10386;DHT22;34307;51.332;12.334;2023-06-26T11:48:09;33.70;1.00
10386;DHT22;34307;51.332;12.334;2023-06-26T11:50:38;33.50;1.00
10386;DHT22;34307;51.332;12.334;2023-06-26T11:53:07;33.90;1.00
10386;DHT22;34307;51.332;12.334;2023-06-26T11:55:41;34.10;1.00
10386;DHT22;34307;51.332;12.334;2023-06-26T11:58:09;34.20;1.00
10386;DHT22;34307;51.332;12.334;2023-06-26T12:00:41;34.30;1.00
10386;DHT22;34307;51.332;12.334;2023-06-26T12:03:09;34.60;1.00
10386;DHT22;34307;51.332;12.334;2023-06-26T12:05:38;34.70;1.00
10386;DHT22;34307;51.332;12.334;2023-06-26T12:08:08;34.90;1.00
10386;DHT22;34307;51.332;12.334;2023-06-26T12:10:36;34.70;1.00
10386;DHT22;34307;51.332;12.334;2023-06-26T12:13:05;33.60;1.00
10386;DHT22;34307;51.332;12.334;2023-06-26T12:15:33;33.20;1.00
10386;DHT22;34307;51.332;12.334;2023-06-26T12:18:08;33.00;1.00
10386;DHT22;34307;51.332;12.334;2023-06-26T12:20:39;33.00;1.00
10386;DHT22;34307;51.332;12.334;2023-06-26T12:23:12;33.00;1.00
10386;DHT22;34307;51.332;12.334;2023-06-26T12:25:40;32.30;1.00
10386;DHT22;34307;51.332;12.334;2023-06-26T12:28:19;31.70;1.00
10386;DHT22;34307;51.332;12.334;2023-06-26T12:30:54;31.60;1.00
10386;DHT22;34307;51.332;12.334;2023-06-26T12:33:36;31.50;1.00
10386;DHT22;34307;51.332;12.334;2023-06-26T12:36:04;32.80;1.00
10386;DHT22;34307;51.332;12.334;2023-06-26T12:38:35;33.60;1.00
10386;DHT22;34307;51.332;12.334;2023-06-26T12:41:04;34.10;1.00
10386;DHT22;34307;51.332;12.334;2023-06-26T12:43:38;34.70;1.00
10386;DHT22;34307;51.332;12.334;2023-06-26T12:46:06;33.70;1.00
10386;DHT22;34307;51.332;12.334;2023-06-26T12:48:39;33.20;1.00
10386;DHT22;34307;51.332;12.334;2023-06-26T12:51:11;33.10;1.00
10386;DHT22;34307;51.332;12.334;2023-06-26T12:53:41;32.60;1.00
10386;DHT22;34307;51.332;12.334;2023-06-26T12:56:11;32.50;1.00
10386;DHT22;34307;51.332;12.334;2023-06-26T12:58:39;32.90;1.00
10386;DHT22;34307;51.332;12.334;2023-06-26T13:01:07;33.90;1.00
10386;DHT22;34307;51.332;12.334;2023-06-26T13:03:37;34.80;1.00
10386;DHT22;34307;51.332;12.334;2023-06-26T13:06:05;35.50;1.00
10386;DHT22;34307;51.332;12.334;2023-06-26T13:08:33;35.30;1.00
10386;DHT22;34307;51.332;12.334;2023-06-26T13:11:03;34.20;1.00
10386;DHT22;34307;51.332;12.334;2023-06-26T13:13:31;33.70;1.00
10386;DHT22;34307;51.332;12.334;2023-06-26T13:15:59;33.80;1.00
10386;DHT22;34307;51.332;12.334;2023-06-26T13:18:27;33.60;1.00
10386;DHT22;34307;51.332;12.334;2023-06-26T13:20:56;33.00;1.00
10386;DHT22;34307;51.332;12.334;2023-06-26T13:23:24;32.90;1.00
10386;DHT22;34307;51.332;12.334;2023-06-26T13:25:54;33.10;1.00
10386;DHT22;34307;51.332;12.334;2023-06-26T13:28:23;33.50;1.00
10386;DHT22;34307;51.332;12.334;2023-06-26T13:30:51;34.20;1.00
10386;DHT22;34307;51.332;12.334;2023-06-26T13:33:19;34.60;1.00
10386;DHT22;34307;51.332;12.334;2023-06-26T13:35:47;35.60;1.00
10386;DHT22;34307;51.332;12.334;2023-06-26T13:38:15;35.20;1.00
10386;DHT22;34307;51.332;12.334;2023-06-26T13:40:44;34.40;1.00
10386;DHT22;34307;51.332;12.334;2023-06-26T13:43:12;34.20;1.00
10386;DHT22;34307;51.332;12.334;2023-06-26T13:45:42;33.90;1.00
10386;DHT22;34307;51.332;12.334;2023-06-26T13:48:10;33.20;1.00
10386;DHT22;34307;51.332;12.334;2023-06-26T13:50:38;33.20;1.00
10386;DHT22;34307;51.332;12.334;2023-06-26T13:53:20;32.90;1.00
10386;DHT22;34307;51.332;12.334;2023-06-26T13:55:48;33.20;1.00
10386;DHT22;34307;51.332;12.334;2023-06-26T13:58:16;32.90;1.00
10386;DHT22;34307;51.332;12.334;2023-06-26T14:00:45;32.10;1.00
10386;DHT22;34307;51.332;12.334;2023-06-26T14:03:18;31.70;1.00
10386;DHT22;34307;51.332;12.334;2023-06-26T14:05:46;31.40;1.00
10386;DHT22;34307;51.332;12.334;2023-06-26T14:08:14;29.70;1.00
10386;DHT22;34307;51.332;12.334;2023-06-26T14:10:42;27.80;17.90
10386;DHT22;34307;51.332;12.334;2023-06-26T14:13:11;26.70;53.60
10386;DHT22;34307;51.332;12.334;2023-06-26T14:15:42;25.40;89.50
10386;DHT22;34307;51.332;12.334;2023-06-26T14:18:11;24.30;99.90
10386;DHT22;34307;51.332;12.334;2023-06-26T14:20:40;24.10;99.90
10386;DHT22;34307;51.332;12.334;2023-06-26T14:23:09;24.50;99.90
10386;DHT22;34307;51.332;12.334;2023-06-26T14:25:38;25.00;99.90
10386;DHT22;34307;51.332;12.334;2023-06-26T14:28:06;25.20;99.90
10386;DHT22;34307;51.332;12.334;2023-06-26T14:30:34;24.90;99.90
10386;DHT22;34307;51.332;12.334;2023-06-26T14:33:02;25.30;99.90
10386;DHT22;34307;51.332;12.334;2023-06-26T14:35:33;25.00;99.90
10386;DHT22;34307;51.332;12.334;2023-06-26T14:38:02;25.30;99.90
10386;DHT22;34307;51.332;12.334;2023-06-26T14:40:30;26.30;99.80
10386;DHT22;34307;51.332;12.334;2023-06-26T14:42:59;26.80;93.40
10386;DHT22;34307;51.332;12.334;2023-06-26T14:45:27;26.80;91.10
10386;DHT22;34307;51.332;12.334;2023-06-26T14:47:57;27.10;88.70
10386;DHT22;34307;51.332;12.334;2023-06-26T14:50:26;26.50;94.80
10386;DHT22;34307;51.332;12.334;2023-06-26T14:52:56;26.80;92.20
10386;DHT22;34307;51.332;12.334;2023-06-26T14:55:24;27.50;85.90
10386;DHT22;34307;51.332;12.334;2023-06-26T14:57:52;27.80;82.60
10386;DHT22;34307;51.332;12.334;2023-06-26T15:00:20;26.80;83.10
10386;DHT22;34307;51.332;12.334;2023-06-26T15:02:49;26.60;85.90
10386;DHT22;34307;51.332;12.334;2023-06-26T15:05:24;26.40;89.00
10386;DHT22;34307;51.332;12.334;2023-06-26T15:07:54;26.90;80.90
10386;DHT22;34307;51.332;12.334;2023-06-26T15:10:24;26.50;80.50
10386;DHT22;34307;51.332;12.334;2023-06-26T15:12:54;26.50;85.90
10386;DHT22;34307;51.332;12.334;2023-06-26T15:15:24;26.70;79.50
10386;DHT22;34307;51.332;12.334;2023-06-26T15:17:52;26.30;79.60
10386;DHT22;34307;51.332;12.334;2023-06-26T15:20:20;26.30;80.70
10386;DHT22;34307;51.332;12.334;2023-06-26T15:22:48;26.10;79.40
10386;DHT22;34307;51.332;12.334;2023-06-26T15:25:15;26.70;74.60
10386;DHT22;34307;51.332;12.334;2023-06-26T15:27:46;26.40;73.80
10386;DHT22;34307;51.332;12.334;2023-06-26T15:30:15;25.90;73.60
10386;DHT22;34307;51.332;12.334;2023-06-26T15:32:42;26.00;72.70
10386;DHT22;34307;51.332;12.334;2023-06-26T15:35:11;25.90;73.10
10386;DHT22;34307;51.332;12.334;2023-06-26T15:37:39;25.90;72.40
10386;DHT22;34307;51.332;12.334;2023-06-26T15:40:08;25.50;70.50
10386;DHT22;34307;51.332;12.334;2023-06-26T15:42:46;24.90;71.30